createdAt,value
2019-04-30T00:01:58.996Z,27.33
2019-04-30T00:04:59.201Z,28.13
2019-04-30T00:07:39.882Z,26.50
2019-04-30T00:10:19.668Z,32.37
2019-04-30T00:12:59.887Z,27.80
2019-04-30T00:15:40.895Z,27.10
2019-04-30T00:18:22.265Z,27.90
2019-04-30T00:21:02.030Z,29.93
2019-04-30T00:23:42.169Z,27.07
2019-04-30T00:26:22.250Z,27.57
2019-04-30T00:29:02.410Z,25.50
2019-04-30T00:31:44.681Z,25.17
2019-04-30T00:34:26.282Z,24.13
2019-04-30T00:37:13.667Z,22.87
2019-04-30T00:39:51.054Z,22.83
2019-04-30T00:42:31.024Z,25.30
2019-04-30T00:45:12.032Z,26.10
2019-04-30T00:47:52.274Z,24.73
2019-04-30T00:50:33.948Z,27.67
2019-04-30T00:53:16.495Z,26.90
2019-04-30T00:55:57.358Z,28.63
2019-04-30T00:58:37.357Z,25.10
2019-04-30T01:01:43.631Z,31.30
2019-04-30T01:04:45.117Z,30.27
2019-04-30T01:07:26.560Z,29.20
2019-04-30T01:10:06.450Z,30.70
2019-04-30T01:12:48.034Z,30.57
2019-04-30T01:15:29.157Z,27.70
2019-04-30T01:18:09.774Z,27.50
2019-04-30T01:20:49.680Z,28.13
2019-04-30T01:23:30.131Z,25.83
2019-04-30T01:26:10.688Z,30.80
2019-04-30T01:28:53.744Z,25.90
2019-04-30T01:31:37.369Z,25.57
2019-04-30T01:34:15.882Z,27.50
2019-04-30T01:36:56.484Z,31.03
2019-04-30T01:39:36.738Z,35.83
2019-04-30T01:42:18.376Z,29.70
2019-04-30T01:44:59.034Z,31.50
2019-04-30T01:47:39.726Z,27.50
2019-04-30T01:50:20.125Z,30.10
2019-04-30T01:53:00.336Z,33.80
2019-04-30T01:59:03.654Z,32.00
2019-04-30T02:01:44.960Z,38.40
2019-04-30T02:04:24.662Z,46.00
2019-04-30T02:07:05.009Z,37.00
2019-04-30T02:09:44.689Z,39.00
2019-04-30T02:12:26.057Z,35.43
2019-04-30T02:15:06.357Z,40.33
2019-04-30T02:17:46.229Z,35.93
2019-04-30T02:20:26.398Z,34.43
2019-04-30T02:23:06.911Z,34.50
2019-04-30T02:25:48.532Z,39.57
2019-04-30T02:28:29.188Z,36.50
2019-04-30T02:31:09.340Z,39.83
2019-04-30T02:33:52.641Z,37.90
2019-04-30T02:39:50.307Z,36.67
2019-04-30T02:42:30.659Z,50.20
2019-04-30T02:45:10.633Z,41.47
2019-04-30T02:47:50.968Z,45.57
2019-04-30T02:50:31.378Z,47.50
2019-04-30T02:53:11.374Z,45.03
2019-04-30T02:55:51.423Z,43.80
2019-04-30T02:58:31.422Z,44.17
2019-04-30T03:01:11.822Z,45.63
2019-04-30T03:03:51.830Z,47.70
2019-04-30T03:06:32.315Z,48.30
2019-04-30T03:09:12.011Z,49.20
2019-04-30T03:11:52.679Z,43.90
2019-04-30T03:14:32.766Z,42.70
2019-04-30T03:17:35.191Z,46.33
2019-04-30T03:23:20.603Z,43.80
2019-04-30T03:26:01.012Z,42.93
2019-04-30T03:28:41.026Z,42.97
2019-04-30T03:31:22.618Z,45.50
2019-04-30T03:34:03.302Z,47.77
2019-04-30T03:36:43.667Z,42.53
2019-04-30T03:39:23.371Z,54.00
2019-04-30T03:42:03.305Z,42.00
2019-04-30T03:44:43.474Z,46.57
2019-04-30T03:47:23.853Z,47.50
2019-04-30T03:50:03.333Z,47.53
2019-04-30T03:52:44.119Z,42.83
2019-04-30T03:55:25.023Z,47.00
2019-04-30T03:58:05.566Z,45.37
2019-04-30T04:01:04.964Z,42.37
2019-04-30T04:04:05.243Z,40.53
2019-04-30T04:06:49.541Z,56.47
2019-04-30T04:09:35.621Z,46.90
2019-04-30T04:12:22.321Z,41.17
2019-04-30T04:15:04.062Z,41.83
2019-04-30T04:17:44.099Z,48.50
2019-04-30T04:20:24.506Z,44.67
2019-04-30T04:23:04.371Z,46.50
2019-04-30T04:25:44.807Z,43.80
2019-04-30T04:28:24.745Z,50.43
2019-04-30T04:31:05.471Z,45.90
2019-04-30T04:33:45.833Z,47.60
2019-04-30T04:36:26.226Z,44.47
2019-04-30T04:39:06.031Z,44.60
2019-04-30T04:41:46.115Z,42.37
2019-04-30T04:44:26.495Z,41.50
2019-04-30T04:47:06.665Z,42.17
2019-04-30T04:49:46.751Z,41.70
2019-04-30T04:52:26.732Z,44.13
2019-04-30T04:55:09.773Z,40.67
2019-04-30T04:57:50.029Z,39.77
2019-04-30T05:00:29.906Z,36.63
2019-04-30T05:03:30.015Z,40.73
2019-04-30T05:06:11.812Z,42.37
2019-04-30T05:08:52.213Z,37.90
2019-04-30T05:11:32.401Z,56.37
2019-04-30T05:14:12.440Z,45.03
2019-04-30T05:16:52.209Z,38.47
2019-04-30T05:19:32.657Z,38.90
2019-04-30T05:22:12.672Z,41.47
2019-04-30T05:24:52.470Z,35.93
2019-04-30T05:27:32.679Z,38.13
2019-04-30T05:30:13.626Z,41.03
2019-04-30T05:32:53.863Z,41.50
2019-04-30T05:35:33.694Z,38.40
2019-04-30T05:38:14.342Z,35.97
2019-04-30T05:40:54.409Z,44.47
2019-04-30T05:43:34.596Z,36.67
2019-04-30T05:46:14.598Z,42.13
2019-04-30T05:48:54.554Z,38.60
2019-04-30T05:51:34.705Z,42.13
2019-04-30T05:54:14.567Z,47.87
2019-04-30T05:56:54.363Z,39.40
2019-04-30T05:59:34.505Z,44.83
2019-04-30T06:02:14.653Z,36.47
2019-04-30T06:04:54.666Z,39.70
2019-04-30T06:07:36.630Z,39.23
2019-04-30T06:17:15.294Z,41.60
2019-04-30T06:19:55.949Z,40.20
2019-04-30T06:22:35.813Z,40.13
2019-04-30T06:25:27.063Z,37.90
2019-04-30T06:27:58.885Z,35.50
2019-04-30T06:30:39.674Z,35.17
2019-04-30T06:33:19.782Z,39.23
2019-04-30T06:36:00.098Z,33.97
2019-04-30T06:38:40.033Z,37.20
2019-04-30T06:41:20.145Z,33.73
2019-04-30T06:44:00.209Z,43.23
2019-04-30T06:46:40.405Z,37.30
2019-04-30T06:49:20.053Z,35.10
2019-04-30T06:52:00.726Z,32.67
2019-04-30T06:54:40.577Z,35.83
2019-04-30T06:57:20.503Z,32.50
2019-04-30T07:00:00.981Z,37.53
2019-04-30T07:02:41.182Z,34.53
2019-04-30T07:05:21.172Z,34.40
2019-04-30T07:08:20.506Z,35.57
2019-04-30T07:11:19.862Z,35.97
2019-04-30T07:14:00.497Z,36.60
2019-04-30T07:16:40.349Z,35.90
2019-04-30T07:22:03.425Z,31.90
2019-04-30T07:24:43.274Z,34.10
2019-04-30T07:27:24.207Z,32.50
2019-04-30T07:30:04.270Z,44.37
2019-04-30T07:32:44.841Z,35.03
2019-04-30T07:35:24.731Z,35.50
2019-04-30T07:38:05.086Z,35.13
2019-04-30T07:40:45.936Z,30.87
2019-04-30T07:43:25.818Z,33.43
2019-04-30T07:46:06.150Z,34.03
2019-04-30T07:48:46.386Z,31.57
2019-04-30T07:51:30.384Z,30.40
2019-04-30T07:54:09.521Z,28.43
2019-04-30T07:56:50.701Z,29.17
2019-04-30T07:59:30.778Z,24.37
2019-04-30T08:02:14.469Z,29.23
2019-04-30T08:05:12.342Z,34.30
2019-04-30T08:07:53.156Z,30.57
2019-04-30T08:09:31.381Z,37.23
2019-04-30T08:10:33.218Z,35.50
2019-04-30T08:13:15.265Z,31.90
2019-04-30T08:15:55.587Z,23.97
2019-04-30T08:18:35.764Z,28.50
2019-04-30T08:21:16.294Z,28.70
2019-04-30T08:23:56.501Z,26.10
2019-04-30T08:26:36.585Z,30.23
2019-04-30T08:29:17.053Z,32.67
2019-04-30T08:31:59.178Z,31.50
2019-04-30T08:34:39.483Z,30.70
2019-04-30T08:37:20.295Z,32.83
2019-04-30T08:39:49.690Z,25.43
2019-04-30T08:42:43.656Z,23.57
2019-04-30T08:45:24.068Z,24.90
2019-04-30T08:48:04.058Z,27.37
2019-04-30T08:50:44.158Z,25.60
2019-04-30T08:53:29.499Z,23.70
2019-04-30T08:56:06.799Z,26.93
2019-04-30T08:58:48.933Z,22.03
2019-04-30T09:01:29.648Z,18.17
2019-04-30T09:04:10.534Z,23.60
2019-04-30T09:06:50.481Z,21.67
2019-04-30T09:09:33.152Z,18.23
2019-04-30T09:12:13.669Z,27.33
2019-04-30T09:14:54.124Z,22.60
2019-04-30T09:17:33.653Z,23.47
2019-04-30T09:20:13.682Z,23.10
2019-04-30T09:22:54.001Z,19.60
2019-04-30T09:25:34.070Z,27.63
2019-04-30T09:28:14.036Z,26.67
2019-04-30T09:30:54.186Z,19.77
2019-04-30T09:33:35.202Z,21.90
2019-04-30T09:36:15.331Z,16.50
2019-04-30T09:38:55.417Z,20.03
2019-04-30T09:41:35.790Z,22.80
2019-04-30T09:44:15.567Z,18.27
2019-04-30T09:46:56.017Z,17.27
2019-04-30T09:49:36.214Z,18.83
2019-04-30T09:52:16.245Z,19.00
2019-04-30T09:54:56.361Z,14.80
2019-04-30T09:57:36.153Z,16.30
2019-04-30T10:00:16.117Z,15.67
2019-04-30T10:02:56.545Z,13.77
2019-04-30T10:05:39.034Z,15.60
2019-04-30T10:08:20.904Z,19.00
2019-04-30T10:11:20.945Z,19.90
2019-04-30T10:14:00.973Z,28.83
2019-04-30T10:17:00.430Z,14.67
2019-04-30T10:19:40.566Z,14.10
2019-04-30T10:22:20.636Z,15.07
2019-04-30T10:25:01.026Z,16.17
2019-04-30T10:27:41.649Z,17.70
2019-04-30T10:30:21.691Z,13.67
2019-04-30T10:33:01.857Z,19.73
2019-04-30T10:35:41.507Z,18.87
2019-04-30T10:38:21.919Z,12.70
2019-04-30T10:41:01.784Z,15.50
2019-04-30T10:43:42.072Z,12.70
2019-04-30T10:46:22.781Z,12.80
2019-04-30T10:49:05.234Z,11.17
2019-04-30T10:51:44.975Z,20.90
2019-04-30T10:54:27.013Z,12.17
2019-04-30T10:57:08.718Z,12.13
2019-04-30T10:59:49.243Z,14.37
2019-04-30T11:02:31.229Z,12.93
2019-04-30T11:05:11.562Z,18.87
2019-04-30T11:07:51.977Z,13.77
2019-04-30T11:10:32.010Z,12.50
2019-04-30T11:13:11.797Z,15.47
2019-04-30T11:15:52.511Z,14.73
2019-04-30T11:18:33.038Z,11.33
2019-04-30T11:21:00.949Z,12.87
2019-04-30T11:23:53.213Z,11.63
2019-04-30T11:26:33.523Z,10.97
2019-04-30T11:29:14.748Z,10.53
2019-04-30T11:35:02.945Z,11.10
2019-04-30T11:37:43.303Z,9.70
2019-04-30T11:40:31.711Z,11.67
2019-04-30T11:43:05.350Z,19.17
2019-04-30T11:45:45.545Z,13.43
2019-04-30T11:48:25.442Z,11.33
2019-04-30T11:51:05.545Z,9.90
2019-04-30T11:53:45.751Z,8.10
2019-04-30T11:56:25.922Z,9.70
2019-04-30T11:59:05.950Z,7.43
2019-04-30T12:01:47.105Z,10.90
2019-04-30T12:04:27.202Z,8.30
2019-04-30T12:10:42.365Z,8.47
2019-04-30T12:13:26.994Z,6.40
2019-04-30T12:16:08.683Z,8.27
2019-04-30T12:18:49.622Z,7.37
2019-04-30T12:21:29.692Z,9.47
2019-04-30T12:24:09.854Z,9.93
2019-04-30T12:26:50.273Z,9.70
2019-04-30T12:29:30.097Z,8.37
2019-04-30T12:32:10.358Z,10.70
2019-04-30T12:34:50.054Z,7.03
2019-04-30T12:37:30.315Z,7.03
2019-04-30T12:40:25.506Z,8.60
2019-04-30T12:42:53.402Z,9.23
2019-04-30T12:45:33.120Z,7.50
2019-04-30T12:48:20.286Z,9.27
2019-04-30T12:51:26.562Z,10.53
2019-04-30T12:54:13.177Z,6.50
2019-04-30T12:57:12.346Z,8.10
2019-04-30T12:59:52.114Z,7.40
2019-04-30T13:02:32.147Z,8.27
2019-04-30T13:05:12.034Z,5.93
2019-04-30T13:07:52.461Z,7.20
2019-04-30T13:10:33.351Z,8.50
2019-04-30T13:13:14.688Z,5.90
2019-04-30T13:15:55.508Z,6.60
2019-04-30T13:18:36.341Z,4.50
2019-04-30T13:21:18.561Z,5.40
2019-04-30T13:23:58.959Z,7.80
2019-04-30T13:26:39.716Z,5.63
2019-04-30T13:32:41.966Z,5.73
2019-04-30T13:35:21.562Z,7.80
2019-04-30T13:38:07.873Z,4.23
2019-04-30T13:40:54.795Z,5.83
2019-04-30T13:44:00.542Z,4.40
2019-04-30T13:46:40.681Z,6.93
2019-04-30T13:49:20.851Z,5.83
2019-04-30T13:52:00.985Z,5.00
2019-04-30T13:54:41.205Z,5.27
2019-04-30T13:57:21.567Z,5.53
2019-04-30T14:00:02.581Z,5.57
2019-04-30T14:02:50.995Z,6.87
2019-04-30T14:05:31.717Z,10.30
2019-04-30T14:08:31.202Z,5.53
2019-04-30T14:11:11.817Z,7.40
2019-04-30T14:13:52.700Z,6.87
2019-04-30T14:16:32.826Z,6.37
2019-04-30T14:19:13.518Z,5.30
2019-04-30T14:21:53.401Z,4.73
2019-04-30T14:24:34.404Z,5.83
2019-04-30T14:27:14.341Z,5.90
2019-04-30T14:29:54.134Z,5.50
2019-04-30T14:32:34.382Z,6.10
2019-04-30T14:35:14.378Z,4.50
2019-04-30T14:37:54.875Z,5.97
2019-04-30T14:40:35.229Z,4.33
2019-04-30T14:46:50.803Z,4.60
2019-04-30T14:53:11.556Z,4.90
2019-04-30T14:56:11.725Z,5.33
2019-04-30T14:59:11.222Z,4.13
2019-04-30T15:05:08.951Z,5.50
2019-04-30T15:07:49.202Z,3.80
2019-04-30T15:10:29.417Z,6.30
2019-04-30T15:13:09.800Z,6.53
2019-04-30T15:15:50.213Z,5.13
2019-04-30T15:18:30.722Z,3.90
2019-04-30T15:21:10.806Z,5.73
2019-04-30T15:24:10.115Z,6.30
2019-04-30T15:26:57.776Z,4.80
2019-04-30T15:29:33.167Z,9.03
2019-04-30T15:32:14.758Z,5.80
2019-04-30T15:34:54.895Z,5.30
2019-04-30T15:37:35.666Z,7.60
2019-04-30T15:40:16.601Z,4.47
2019-04-30T15:42:58.472Z,5.17
2019-04-30T15:45:39.148Z,5.63
2019-04-30T15:48:19.929Z,7.17
2019-04-30T15:50:59.998Z,4.80
2019-04-30T15:53:39.529Z,6.43
2019-04-30T15:56:19.946Z,6.20
2019-04-30T15:59:19.578Z,6.83
2019-04-30T16:02:04.813Z,4.93
2019-04-30T16:08:23.367Z,8.40
2019-04-30T16:14:12.081Z,7.30
2019-04-30T16:16:58.493Z,6.40
2019-04-30T16:19:38.931Z,5.13
2019-04-30T16:22:20.780Z,9.03
2019-04-30T16:25:00.783Z,9.13
2019-04-30T16:27:41.077Z,7.60
2019-04-30T16:30:21.051Z,7.40
2019-04-30T16:33:01.407Z,8.47
2019-04-30T16:35:41.246Z,4.33
2019-04-30T16:38:21.068Z,4.63
2019-04-30T16:41:01.418Z,5.50
2019-04-30T16:43:44.060Z,5.73
2019-04-30T16:46:23.891Z,8.03
2019-04-30T16:49:05.022Z,5.43
2019-04-30T16:51:45.442Z,6.40
2019-04-30T16:54:25.477Z,6.13
2019-04-30T16:57:07.025Z,6.80
2019-04-30T16:59:49.785Z,6.97
2019-04-30T17:02:31.529Z,5.67
2019-04-30T17:08:54.925Z,6.20
2019-04-30T17:11:54.911Z,6.17
2019-04-30T17:14:35.335Z,7.30
2019-04-30T17:17:16.024Z,8.10
2019-04-30T17:19:55.958Z,11.70
2019-04-30T17:22:23.881Z,6.50
2019-04-30T17:25:11.167Z,8.90
2019-04-30T17:27:52.445Z,6.37
2019-04-30T17:30:32.693Z,5.60
2019-04-30T17:33:12.531Z,8.57
2019-04-30T17:35:52.394Z,8.43
2019-04-30T17:38:32.269Z,9.20
2019-04-30T17:41:12.934Z,6.23
2019-04-30T17:43:54.867Z,7.50
2019-04-30T17:46:35.650Z,5.83
2019-04-30T17:49:15.898Z,6.83
2019-04-30T17:51:56.727Z,7.43
2019-04-30T17:54:36.791Z,8.23
2019-04-30T17:57:29.319Z,7.60
2019-04-30T17:59:59.232Z,6.93
2019-04-30T18:02:39.285Z,9.90
2019-04-30T18:05:19.991Z,7.83
2019-04-30T18:08:02.272Z,10.20
2019-04-30T18:10:42.926Z,9.33
2019-04-30T18:13:25.700Z,12.00
2019-04-30T18:16:05.974Z,7.43
2019-04-30T18:21:51.301Z,8.20
2019-04-30T18:27:46.540Z,9.10
2019-04-30T18:30:31.586Z,8.50
2019-04-30T18:33:11.710Z,21.97
2019-04-30T18:35:52.861Z,46.67
2019-04-30T18:38:32.512Z,9.73
2019-04-30T18:41:15.209Z,21.93
2019-04-30T18:43:54.875Z,13.33
2019-04-30T18:46:34.958Z,14.27
2019-04-30T18:49:15.374Z,13.60
2019-04-30T18:51:55.041Z,10.00
2019-04-30T18:54:35.465Z,9.43
2019-04-30T18:57:15.457Z,10.83
2019-04-30T18:59:55.422Z,9.00
2019-04-30T19:02:35.733Z,8.90
2019-04-30T19:08:45.466Z,7.53
2019-04-30T19:11:45.049Z,9.67
2019-04-30T19:14:51.037Z,11.60
2019-04-30T19:17:51.006Z,13.17
2019-04-30T19:20:51.560Z,13.33
2019-04-30T19:23:31.462Z,14.00
2019-04-30T19:26:11.325Z,15.13
2019-04-30T19:28:51.487Z,25.70
2019-04-30T19:31:31.605Z,20.23
2019-04-30T19:34:11.615Z,17.90
2019-04-30T19:36:51.878Z,14.07
2019-04-30T19:39:33.341Z,96.70
2019-04-30T19:42:13.266Z,31.53
2019-04-30T19:44:59.749Z,38.17
2019-04-30T19:47:35.178Z,23.93
2019-04-30T19:50:15.801Z,46.87
2019-04-30T19:52:55.433Z,29.73
2019-04-30T19:55:35.408Z,30.00
2019-04-30T19:58:26.221Z,22.50
2019-04-30T20:00:59.484Z,14.53
2019-04-30T20:03:40.790Z,12.53
2019-04-30T20:06:21.047Z,14.87
2019-04-30T20:09:01.557Z,11.57
2019-04-30T20:11:43.089Z,13.60
2019-04-30T20:14:23.890Z,15.23
2019-04-30T20:17:05.703Z,13.47
2019-04-30T20:19:45.809Z,10.17
2019-04-30T20:22:26.546Z,11.63
2019-04-30T20:25:06.822Z,19.50
2019-04-30T20:27:34.149Z,21.03
2019-04-30T20:30:21.137Z,18.33
2019-04-30T20:33:01.341Z,15.30
2019-04-30T20:35:41.437Z,14.40
2019-04-30T20:38:44.670Z,25.63
2019-04-30T20:41:26.013Z,16.90
2019-04-30T20:44:05.866Z,18.57
2019-04-30T20:46:46.393Z,16.03
2019-04-30T20:49:26.814Z,16.67
2019-04-30T20:52:06.469Z,53.50
2019-04-30T20:54:48.827Z,37.13
2019-04-30T20:57:29.538Z,28.50
2019-04-30T21:00:10.053Z,18.40
2019-04-30T21:02:52.262Z,16.00
2019-04-30T21:05:32.943Z,18.97
2019-04-30T21:08:17.851Z,19.97
2019-04-30T21:10:59.377Z,18.60
2019-04-30T21:13:40.618Z,19.60
2019-04-30T21:16:20.897Z,23.33
2019-04-30T21:19:01.021Z,36.77
2019-04-30T21:21:41.216Z,57.97
2019-04-30T21:24:22.328Z,44.57
2019-04-30T21:27:02.379Z,30.13
2019-04-30T21:29:42.973Z,21.33
2019-04-30T21:32:45.711Z,25.20
2019-04-30T21:35:32.941Z,29.83
2019-04-30T21:38:20.553Z,24.97
2019-04-30T21:41:03.073Z,27.40
2019-04-30T21:43:43.514Z,24.53
2019-04-30T21:46:23.301Z,18.30
2019-04-30T21:49:03.298Z,18.20
2019-04-30T21:51:43.417Z,18.40
2019-04-30T21:54:23.257Z,17.30
2019-04-30T21:57:03.529Z,23.03
2019-04-30T21:59:44.744Z,19.97
2019-04-30T22:02:24.879Z,31.70
2019-04-30T22:05:05.189Z,28.10
2019-04-30T22:07:44.738Z,22.17
2019-04-30T22:10:25.384Z,15.73
2019-04-30T22:13:05.154Z,41.17
2019-04-30T22:15:45.170Z,42.90
2019-04-30T22:18:25.706Z,34.43
2019-04-30T22:21:07.325Z,32.33
2019-04-30T22:23:49.495Z,64.87
2019-04-30T22:26:35.410Z,35.13
2019-04-30T22:32:17.349Z,26.20
2019-04-30T22:38:21.661Z,13.80
2019-04-30T22:41:02.330Z,25.23
2019-04-30T22:43:42.222Z,56.17
2019-04-30T22:46:22.333Z,26.60
2019-04-30T22:49:02.373Z,19.93
2019-04-30T22:51:42.783Z,17.43
2019-04-30T22:54:22.797Z,16.47
2019-04-30T22:57:02.605Z,18.67
2019-04-30T22:59:49.658Z,25.90
2019-04-30T23:02:44.190Z,24.53
2019-04-30T23:05:24.722Z,31.00
2019-04-30T23:08:05.151Z,20.43
2019-04-30T23:10:46.077Z,21.17
2019-04-30T23:13:25.746Z,17.40
2019-04-30T23:16:05.737Z,18.60
2019-04-30T23:18:46.126Z,19.67
2019-04-30T23:21:26.161Z,16.73
2019-04-30T23:24:06.650Z,15.80
2019-04-30T23:26:46.862Z,15.10
2019-04-30T23:29:27.160Z,16.00
2019-04-30T23:31:55.677Z,16.67
2019-04-30T23:34:36.205Z,16.67
2019-04-30T23:37:19.163Z,15.70
2019-04-30T23:39:59.411Z,18.07
2019-04-30T23:42:39.489Z,39.30
2019-04-30T23:45:19.358Z,27.73
2019-04-30T23:47:59.495Z,31.03
2019-04-30T23:50:39.818Z,26.00
2019-04-30T23:53:19.866Z,24.17
2019-04-30T23:56:00.055Z,107.70
2019-04-30T23:58:40.041Z,105.43
